createdAt,value
2023-01-11T00:00:24.601Z,0.60
2023-01-11T00:03:26.444Z,0.70
2023-01-11T00:06:28.868Z,0.50
2023-01-11T00:09:30.717Z,0.60
2023-01-11T00:12:33.076Z,0.67
2023-01-11T00:15:36.832Z,0.60
2023-01-11T00:18:40.122Z,0.37
2023-01-11T00:21:42.043Z,0.57
2023-01-11T00:24:43.953Z,0.63
2023-01-11T00:27:47.595Z,0.90
2023-01-11T00:30:50.381Z,0.63
2023-01-11T00:33:52.306Z,0.60
2023-01-11T00:36:54.806Z,0.40
2023-01-11T00:39:56.759Z,0.33
2023-01-11T00:43:17.152Z,0.50
2023-01-11T00:46:37.829Z,0.40
2023-01-11T00:49:39.871Z,0.47
2023-01-11T00:52:41.730Z,0.50
2023-01-11T00:55:44.151Z,0.50
2023-01-11T00:58:46.113Z,0.73
2023-01-11T01:01:48.405Z,0.50
2023-01-11T01:04:50.248Z,0.30
2023-01-11T01:07:52.205Z,0.40
2023-01-11T01:10:54.064Z,0.60
2023-01-11T01:14:14.767Z,0.50
2023-01-11T01:17:16.977Z,0.50
2023-01-11T01:20:21.241Z,0.50
2023-01-11T01:23:23.128Z,0.50
2023-01-11T01:26:25.295Z,0.50
2023-01-11T01:29:27.387Z,0.40
2023-01-11T01:32:29.300Z,0.50
2023-01-11T01:35:31.179Z,0.40
2023-01-11T01:38:33.149Z,0.50
2023-01-11T01:41:35.760Z,0.40
2023-01-11T01:44:54.682Z,0.50
2023-01-11T01:48:02.150Z,0.80
2023-01-11T01:51:06.959Z,0.50
2023-01-11T01:54:13.581Z,0.60
2023-01-11T01:57:22.498Z,0.40
2023-01-11T02:00:24.527Z,0.60
2023-01-11T02:03:27.189Z,0.43
2023-01-11T02:06:29.227Z,0.40
2023-01-11T02:09:36.093Z,0.43
2023-01-11T02:12:44.072Z,0.47
2023-01-11T02:15:46.156Z,0.40
2023-01-11T02:18:48.671Z,0.40
2023-01-11T02:21:59.688Z,0.40
2023-01-11T02:25:03.548Z,0.47
2023-01-11T02:28:37.874Z,0.40
2023-01-11T02:31:54.131Z,0.20
2023-01-11T02:35:24.770Z,0.33
2023-01-11T02:38:39.908Z,0.30
2023-01-11T02:42:20.493Z,0.20
2023-01-11T02:45:31.073Z,0.30
2023-01-11T02:49:02.742Z,0.40
2023-01-11T02:52:17.629Z,0.30
2023-01-11T02:55:24.993Z,0.20
2023-01-11T02:58:30.374Z,0.40
2023-01-11T03:01:32.388Z,0.20
2023-01-11T03:04:38.172Z,0.40
2023-01-11T03:07:56.592Z,0.53
2023-01-11T03:11:04.763Z,0.30
2023-01-11T03:14:13.165Z,0.27
2023-01-11T03:17:36.355Z,0.37
2023-01-11T03:20:42.488Z,0.40
2023-01-11T03:24:07.508Z,0.47
2023-01-11T03:27:31.529Z,0.20
2023-01-11T03:31:01.557Z,0.30
2023-01-11T03:34:18.773Z,0.40
2023-01-11T03:37:26.402Z,0.50
2023-01-11T03:40:32.126Z,0.17
2023-01-11T03:43:36.825Z,0.30
2023-01-11T03:46:45.043Z,0.43
2023-01-11T03:49:52.283Z,0.23
2023-01-11T03:52:56.143Z,0.60
2023-01-11T03:55:59.420Z,0.30
2023-01-11T03:59:01.846Z,0.50
2023-01-11T04:02:03.789Z,0.40
2023-01-11T04:05:07.324Z,0.30
2023-01-11T04:08:09.487Z,0.67
2023-01-11T04:11:11.736Z,0.40
2023-01-11T04:14:13.693Z,0.50
2023-01-11T04:17:16.212Z,0.30
2023-01-11T04:20:18.290Z,0.40
2023-01-11T04:23:20.421Z,0.33
2023-01-11T04:26:22.375Z,0.40
2023-01-11T04:29:25.069Z,0.47
2023-01-11T04:32:27.186Z,0.40
2023-01-11T04:35:29.980Z,0.40
2023-01-11T04:38:31.854Z,0.40
2023-01-11T04:41:52.569Z,0.37
2023-01-11T04:44:54.529Z,0.40
2023-01-11T04:47:57.988Z,0.50
2023-01-11T04:50:59.915Z,0.30
2023-01-11T04:54:01.891Z,0.50
2023-01-11T04:57:03.918Z,0.60
2023-01-11T05:00:11.119Z,0.40
2023-01-11T05:03:14.281Z,0.50
2023-01-11T05:06:16.367Z,0.40
2023-01-11T05:09:19.655Z,0.40
2023-01-11T05:12:21.589Z,0.60
2023-01-11T05:15:23.549Z,0.70
2023-01-11T05:18:25.455Z,0.50
2023-01-11T05:21:36.332Z,0.40
2023-01-11T05:24:38.298Z,0.60
2023-01-11T05:27:40.118Z,0.50
2023-01-11T05:30:42.145Z,0.50
2023-01-11T05:33:44.708Z,0.33
2023-01-11T05:36:46.751Z,0.87
2023-01-11T05:39:49.003Z,0.73
2023-01-11T05:42:50.935Z,0.63
2023-01-11T05:45:54.123Z,0.60
2023-01-11T05:48:56.386Z,0.60
2023-01-11T05:51:58.293Z,0.60
2023-01-11T05:55:00.312Z,0.50
2023-01-11T05:58:02.293Z,0.60
2023-01-11T06:01:05.107Z,0.50
2023-01-11T06:04:08.743Z,0.80
2023-01-11T06:07:11.079Z,0.70
2023-01-11T06:10:12.944Z,0.83
2023-01-11T06:13:27.145Z,0.73
2023-01-11T06:16:29.133Z,0.53
2023-01-11T06:19:31.137Z,0.40
2023-01-11T06:22:33.209Z,0.40
2023-01-11T06:25:38.071Z,0.57
2023-01-11T06:28:40.171Z,0.70
2023-01-11T06:31:42.685Z,0.80
2023-01-11T06:34:45.024Z,0.60
2023-01-11T06:37:47.265Z,0.67
2023-01-11T06:41:08.692Z,0.60
2023-01-11T06:44:11.481Z,0.77
2023-01-11T06:47:13.422Z,0.60
2023-01-11T06:50:16.531Z,0.60
2023-01-11T06:53:18.607Z,0.87
2023-01-11T06:56:20.533Z,0.70
2023-01-11T06:59:22.428Z,0.53
2023-01-11T07:02:24.568Z,0.77
2023-01-11T07:05:26.530Z,0.63
2023-01-11T07:08:28.959Z,0.70
2023-01-11T07:11:32.554Z,0.83
2023-01-11T07:14:35.132Z,0.80
2023-01-11T07:17:37.044Z,1.33
2023-01-11T07:20:39.036Z,0.77
2023-01-11T07:23:40.922Z,0.93
2023-01-11T07:26:43.604Z,3.80
2023-01-11T07:29:45.674Z,2.47
2023-01-11T07:32:47.635Z,1.57
2023-01-11T07:35:49.953Z,1.03
2023-01-11T07:38:52.393Z,2.00
2023-01-11T07:42:14.660Z,4.07
2023-01-11T07:45:17.379Z,3.10
2023-01-11T07:48:25.456Z,1.83
2023-01-11T07:51:27.612Z,1.90
2023-01-11T07:54:29.580Z,1.70
2023-01-11T07:57:32.014Z,0.67
2023-01-11T08:00:34.934Z,0.40
2023-01-11T08:03:37.085Z,0.70
2023-01-11T08:06:39.569Z,1.07
2023-01-11T08:09:41.501Z,1.00
2023-01-11T08:13:07.024Z,0.70
2023-01-11T08:16:09.110Z,0.70
2023-01-11T08:19:11.757Z,0.70
2023-01-11T08:22:13.844Z,0.70
2023-01-11T08:25:16.126Z,0.90
2023-01-11T08:28:18.023Z,0.53
2023-01-11T08:31:20.198Z,1.07
2023-01-11T08:34:23.025Z,1.23
2023-01-11T08:37:24.884Z,0.90
2023-01-11T08:40:26.765Z,1.10
2023-01-11T08:43:31.862Z,0.90
2023-01-11T08:46:34.664Z,0.87
2023-01-11T08:49:36.549Z,0.80
2023-01-11T08:52:38.956Z,0.63
2023-01-11T08:55:43.718Z,0.70
2023-01-11T08:58:45.724Z,0.53
2023-01-11T09:01:48.272Z,0.93
2023-01-11T09:04:50.241Z,0.70
2023-01-11T09:07:55.025Z,0.40
2023-01-11T09:11:00.078Z,0.80
2023-01-11T09:14:01.986Z,0.80
2023-01-11T09:17:04.045Z,0.87
2023-01-11T09:20:07.001Z,0.83
2023-01-11T09:23:08.916Z,0.93
2023-01-11T09:26:12.692Z,0.97
2023-01-11T09:29:14.693Z,0.73
2023-01-11T09:32:16.589Z,0.67
2023-01-11T09:35:19.624Z,0.73
2023-01-11T09:38:22.009Z,1.03
2023-01-11T09:42:04.849Z,1.03
2023-01-11T09:45:14.639Z,1.00
2023-01-11T09:48:29.182Z,1.00
2023-01-11T09:51:35.962Z,1.27
2023-01-11T09:54:37.994Z,1.17
2023-01-11T09:57:58.525Z,1.30
2023-01-11T10:01:18.565Z,1.10
2023-01-11T10:04:37.694Z,1.13
2023-01-11T10:18:33.078Z,0.63
2023-01-11T10:19:35.036Z,0.70
2023-01-11T10:22:35.668Z,1.00
2023-01-11T10:25:48.256Z,1.57
2023-01-11T10:29:22.598Z,1.10
2023-01-11T10:33:10.546Z,1.20
2023-01-11T10:36:18.847Z,1.60
2023-01-11T10:40:03.129Z,1.00
2023-01-11T10:43:13.213Z,0.70
2023-01-11T10:46:20.766Z,0.70
2023-01-11T10:50:05.961Z,0.70
2023-01-11T10:53:20.805Z,0.80
2023-01-11T10:56:42.517Z,0.83
2023-01-11T10:59:56.819Z,0.80
2023-01-11T11:03:10.972Z,0.90
2023-01-11T11:06:15.687Z,0.97
2023-01-11T11:09:23.385Z,0.90
2023-01-11T11:12:33.725Z,0.80
2023-01-11T11:15:57.195Z,0.80
2023-01-11T11:18:59.575Z,1.10
2023-01-11T11:22:01.550Z,0.80
2023-01-11T11:25:12.301Z,0.93
2023-01-11T11:28:23.403Z,0.77
2023-01-11T11:31:25.287Z,0.70
2023-01-11T11:34:28.219Z,0.70
2023-01-11T11:37:35.361Z,0.90
2023-01-11T11:40:39.019Z,0.87
2023-01-11T11:43:48.214Z,0.80
2023-01-11T11:47:03.015Z,0.60
2023-01-11T11:50:43.009Z,0.70
2023-01-11T11:53:53.603Z,0.63
2023-01-11T11:56:56.868Z,0.70
2023-01-11T12:00:29.560Z,0.97
2023-01-11T12:03:33.907Z,1.00
2023-01-11T12:06:35.851Z,0.70
2023-01-11T12:09:44.212Z,0.77
2023-01-11T12:12:54.074Z,0.80
2023-01-11T12:15:57.984Z,0.90
2023-01-11T12:18:59.988Z,0.73
2023-01-11T12:22:22.725Z,0.50
2023-01-11T12:25:26.227Z,0.70
2023-01-11T12:28:30.929Z,0.87
2023-01-11T12:31:57.944Z,1.00
2023-01-11T12:35:05.659Z,1.00
2023-01-11T12:38:32.020Z,0.83
2023-01-11T12:41:55.338Z,0.60
2023-01-11T12:44:57.272Z,0.80
2023-01-11T12:48:32.837Z,1.00
2023-01-11T12:51:55.927Z,1.70
2023-01-11T12:55:16.095Z,1.17
2023-01-11T12:58:23.925Z,0.70
2023-01-11T13:01:41.223Z,0.80
2023-01-11T13:05:25.132Z,0.50
2023-01-11T13:09:02.686Z,0.53
2023-01-11T13:12:08.243Z,0.70
2023-01-11T13:15:13.109Z,0.47
2023-01-11T13:18:23.890Z,0.60
2023-01-11T13:21:28.947Z,0.70
2023-01-11T13:24:32.205Z,0.90
2023-01-11T13:27:34.310Z,0.57
2023-01-11T13:30:36.786Z,0.63
2023-01-11T13:33:42.028Z,1.03
2023-01-11T13:36:49.034Z,1.10
2023-01-11T13:39:57.489Z,1.03
2023-01-11T13:43:22.509Z,0.80
2023-01-11T13:46:55.093Z,0.60
2023-01-11T13:50:23.844Z,0.63
2023-01-11T13:53:44.529Z,0.73
2023-01-11T13:57:42.221Z,0.60
2023-01-11T14:00:48.375Z,0.70
2023-01-11T14:03:54.472Z,0.63
2023-01-11T14:07:30.725Z,0.80
2023-01-11T14:10:57.991Z,0.80
2023-01-11T14:14:37.596Z,0.70
2023-01-11T14:18:09.302Z,0.80
2023-01-11T14:21:28.473Z,0.90
2023-01-11T14:24:33.533Z,0.90
2023-01-11T14:27:35.393Z,1.00
2023-01-11T14:31:08.407Z,2.50
2023-01-11T14:34:26.437Z,1.03
2023-01-11T14:37:37.597Z,1.57
2023-01-11T14:41:15.304Z,1.10
2023-01-11T14:44:55.625Z,1.20
2023-01-11T14:48:18.892Z,1.87
2023-01-11T14:51:30.593Z,2.90
2023-01-11T14:54:41.029Z,3.47
2023-01-11T14:58:22.040Z,2.80
2023-01-11T15:01:23.989Z,2.83
2023-01-11T15:04:26.004Z,2.10
2023-01-11T15:07:30.945Z,2.10
2023-01-11T15:10:35.273Z,2.47
2023-01-11T15:13:45.058Z,2.17
2023-01-11T15:17:11.595Z,2.40
2023-01-11T15:20:16.822Z,1.80
2023-01-11T15:23:19.192Z,2.00
2023-01-11T15:26:22.603Z,1.17
2023-01-11T15:29:30.568Z,1.20
2023-01-11T15:32:36.668Z,2.00
2023-01-11T15:35:38.742Z,1.73
2023-01-11T15:39:00.078Z,2.03
2023-01-11T15:42:04.952Z,2.47
2023-01-11T15:45:34.076Z,3.30
2023-01-11T15:49:10.407Z,7.43
2023-01-11T15:52:27.517Z,8.70
2023-01-11T15:55:48.537Z,10.10
2023-01-11T15:58:56.315Z,7.60
2023-01-11T16:02:19.231Z,6.27
2023-01-11T16:05:32.952Z,3.20
2023-01-11T16:09:05.359Z,2.73
2023-01-11T16:12:19.202Z,1.77
2023-01-11T16:15:33.419Z,1.60
2023-01-11T16:18:39.253Z,1.70
2023-01-11T16:21:42.604Z,2.10
2023-01-11T16:24:47.905Z,2.00
2023-01-11T16:27:55.911Z,2.87
2023-01-11T16:31:04.425Z,2.73
2023-01-11T16:34:07.734Z,3.10
2023-01-11T16:37:21.809Z,3.37
2023-01-11T16:40:29.736Z,4.67
2023-01-11T16:43:33.623Z,4.70
2023-01-11T16:46:47.604Z,4.00
2023-01-11T16:50:10.476Z,4.47
2023-01-11T16:53:13.771Z,3.77
2023-01-11T16:56:24.021Z,4.83
2023-01-11T16:59:31.239Z,5.40
2023-01-11T17:02:40.393Z,4.90
2023-01-11T17:05:42.582Z,5.10
2023-01-11T17:08:56.556Z,4.60
2023-01-11T17:11:58.469Z,4.10
2023-01-11T17:15:09.164Z,3.73
2023-01-11T17:18:11.834Z,4.10
2023-01-11T17:21:28.203Z,2.83
2023-01-11T17:24:31.141Z,3.10
2023-01-11T17:27:35.958Z,3.50
2023-01-11T17:30:37.936Z,2.67
2023-01-11T17:33:39.824Z,3.17
2023-01-11T17:36:42.940Z,3.57
2023-01-11T17:39:50.843Z,4.03
2023-01-11T17:43:21.284Z,4.37
2023-01-11T17:46:27.191Z,2.80
2023-01-11T17:49:29.204Z,2.37
2023-01-11T17:52:43.744Z,3.03
2023-01-11T17:56:05.026Z,3.37
2023-01-11T17:59:15.601Z,2.77
2023-01-11T18:02:18.180Z,2.87
2023-01-11T18:05:25.918Z,2.50
2023-01-11T18:08:27.975Z,3.10
2023-01-11T18:11:29.851Z,3.00
2023-01-11T18:14:39.770Z,2.57
2023-01-11T18:17:44.850Z,3.37
2023-01-11T18:20:47.315Z,3.73
2023-01-11T18:23:49.162Z,4.53
2023-01-11T18:27:06.954Z,3.87
2023-01-11T18:30:30.916Z,3.07
2023-01-11T18:33:34.695Z,2.80
2023-01-11T18:36:37.496Z,2.70
2023-01-11T18:39:41.166Z,2.10
2023-01-11T18:42:45.289Z,2.70
2023-01-11T18:45:47.778Z,2.63
2023-01-11T18:48:49.829Z,2.63
2023-01-11T18:51:52.351Z,2.83
2023-01-11T18:54:55.290Z,2.70
2023-01-11T18:57:58.530Z,2.73
2023-01-11T19:01:00.530Z,2.80
2023-01-11T19:04:02.496Z,2.70
2023-01-11T19:07:04.422Z,1.90
2023-01-11T19:10:07.277Z,1.90
2023-01-11T19:13:09.109Z,2.27
2023-01-11T19:16:11.395Z,2.20
2023-01-11T19:19:13.674Z,2.10
2023-01-11T19:22:15.966Z,1.57
2023-01-11T19:25:17.900Z,2.13
2023-01-11T19:28:19.848Z,2.30
2023-01-11T19:31:21.774Z,1.83
2023-01-11T19:34:24.447Z,2.20
2023-01-11T19:37:27.646Z,2.97
2023-01-11T19:40:29.676Z,2.80
2023-01-11T19:43:31.543Z,2.90
2023-01-11T19:46:33.943Z,3.60
2023-01-11T19:49:35.957Z,3.50
2023-01-11T19:52:37.967Z,2.97
2023-01-11T19:55:40.568Z,3.20
2023-01-11T19:58:42.487Z,3.40
2023-01-11T20:01:46.100Z,2.70
2023-01-11T20:04:48.146Z,2.53
2023-01-11T20:07:50.878Z,3.23
2023-01-11T20:10:52.820Z,4.23
2023-01-11T20:13:54.879Z,5.00
2023-01-11T20:16:57.166Z,4.57
2023-01-11T20:19:59.134Z,5.07
2023-01-11T20:23:00.935Z,4.73
2023-01-11T20:26:08.115Z,3.50
2023-01-11T20:29:09.980Z,3.40
2023-01-11T20:32:34.928Z,3.43
2023-01-11T20:35:34.789Z,2.60
2023-01-11T20:38:36.773Z,2.57
2023-01-11T20:41:47.892Z,2.40
2023-01-11T20:44:49.975Z,2.30
2023-01-11T20:47:51.847Z,1.87
2023-01-11T20:50:54.845Z,2.03
2023-01-11T20:53:56.897Z,2.70
2023-01-11T20:57:02.399Z,2.50
2023-01-11T21:00:05.045Z,2.40
2023-01-11T21:03:06.979Z,1.80
2023-01-11T21:06:09.798Z,2.00
2023-01-11T21:09:14.560Z,2.03
2023-01-11T21:12:18.664Z,1.73
2023-01-11T21:15:20.940Z,1.63
2023-01-11T21:18:22.835Z,1.80
2023-01-11T21:21:25.824Z,1.33
2023-01-11T21:24:28.219Z,1.60
2023-01-11T21:27:31.241Z,1.30
2023-01-11T21:30:33.368Z,1.60
2023-01-11T21:33:37.509Z,1.73
2023-01-11T21:36:40.373Z,1.80
2023-01-11T21:39:42.348Z,3.20
2023-01-11T21:42:44.508Z,3.40
2023-01-11T21:45:55.965Z,3.67
2023-01-11T21:48:57.889Z,4.27
2023-01-11T21:51:59.986Z,2.90
2023-01-11T21:55:01.932Z,2.97
2023-01-11T21:58:03.830Z,5.03
2023-01-11T22:01:14.740Z,4.40
2023-01-11T22:04:19.180Z,3.50
2023-01-11T22:07:20.991Z,2.90
2023-01-11T22:10:23.056Z,2.70
2023-01-11T22:13:26.332Z,2.37
2023-01-11T22:16:31.162Z,3.20
2023-01-11T22:19:33.092Z,3.27
2023-01-11T22:22:35.331Z,3.63
2023-01-11T22:25:37.216Z,2.93
2023-01-11T22:28:58.512Z,2.07
2023-01-11T22:32:02.511Z,2.73
2023-01-11T22:35:04.935Z,2.67
2023-01-11T22:38:07.373Z,2.50
2023-01-11T22:41:10.104Z,2.60
2023-01-11T22:44:12.542Z,2.80
2023-01-11T22:47:14.555Z,2.47
2023-01-11T22:50:16.571Z,1.90
2023-01-11T22:53:18.966Z,2.03
2023-01-11T22:56:25.110Z,2.40
2023-01-11T22:59:28.411Z,1.47
2023-01-11T23:02:30.436Z,1.50
2023-01-11T23:05:32.458Z,1.70
2023-01-11T23:08:40.926Z,1.87
2023-01-11T23:12:02.244Z,1.67
2023-01-11T23:15:04.946Z,1.80
2023-01-11T23:18:08.809Z,2.30
2023-01-11T23:21:10.640Z,2.50
2023-01-11T23:24:14.128Z,2.20
2023-01-11T23:27:16.048Z,2.40
2023-01-11T23:30:19.285Z,2.60
2023-01-11T23:33:21.197Z,2.03
2023-01-11T23:36:25.099Z,2.20
2023-01-11T23:39:26.971Z,2.50
2023-01-11T23:42:29.824Z,2.10
2023-01-11T23:45:31.725Z,1.77
2023-01-11T23:48:33.674Z,2.30
2023-01-11T23:51:36.431Z,2.53
2023-01-11T23:54:38.536Z,1.73
2023-01-11T23:58:01.009Z,1.83
